ADDS METAR Data INFO
IDs: Format: Raw Decoded Include TAF

Data at: 1136 UTC 17 Jul 2018

KJHN 171115Z AUTO 18004KT 10SM CLR 19/17 A3009 RMK AO2 T01850170
KJHN 171055Z AUTO 17003KT 10SM CLR 19/17 A3009 RMK AO2 T01850171
KJHN 171035Z AUTO 14003KT 10SM CLR 19/18 A3009 RMK AO2 T01910178
KJHN 171015Z AUTO 00000KT 10SM CLR 19/18 A3010 RMK AO2 T01900175
KJHN 170955Z AUTO 00000KT 10SM CLR 20/18 A3010 RMK AO2 T01950181
KJHN 170935Z AUTO 30003KT 10SM SCT120 20/18 A3010 RMK AO2 T02010181
KJHN 170915Z AUTO 13004KT 10SM SCT120 20/18 A3010 RMK AO2 T02030179
KJHN 170855Z AUTO 15004KT 10SM CLR 21/18 A3009 RMK AO2 T02100184
KJHN 170835Z AUTO 12003KT 10SM CLR 21/18 A3009 RMK AO2 T02120183
KJHN 170815Z AUTO 15004KT 10SM CLR 22/18 A3009 RMK AO2 T02170182
KJHN 170755Z AUTO 14006KT 10SM CLR 22/18 A3009 RMK AO2 T02200181
KJHN 170735Z AUTO 15008KT 10SM CLR 22/18 A3009 RMK AO2 T02220180
KJHN 170715Z AUTO 15010KT 10SM CLR 22/18 A3009 RMK AO2 T02240178
KJHN 170655Z AUTO 15010KT 10SM CLR 23/18 A3008 RMK AO2 T02250175
KJHN 170635Z AUTO 14008KT 10SM CLR 23/17 A3009 RMK AO2 T02250174
KJHN 170615Z AUTO 14009KT 10SM CLR 23/17 A3010 RMK AO2 T02280172
KJHN 170555Z AUTO 12006KT 10SM CLR 24/17 A3011 RMK AO2 T02360174 10321 20236 403390179
KJHN 170535Z AUTO 12008KT 10SM CLR 24/18 A3012 RMK AO2 T02400175
KJHN 170515Z AUTO 10007KT 10SM CLR 24/18 A3012 RMK AO2 T02360175
KJHN 170455Z AUTO 11005KT 10SM CLR 25/18 A3012 RMK AO2 T02450175
KJHN 170435Z AUTO 13006KT 10SM SCT075 26/17 A3012 RMK AO2 T02550171
KJHN 170415Z AUTO 14005KT 10SM SCT075 SCT085 27/17 A3013 RMK AO2 LTG DSNT NW T02650167
KJHN 170355Z AUTO 19006KT 10SM CLR 27/17 A3013 RMK AO2 T02670167
KJHN 170335Z AUTO 24009KT 10SM CLR 25/17 A3012 RMK AO2 T02510173
KJHN 170315Z AUTO 11005KT 10SM CLR 25/18 A3010 RMK AO2 T02540175
KJHN 170255Z AUTO 14006KT 10SM CLR 27/17 A3010 RMK AO2 T02650170
KJHN 170235Z AUTO 14007KT 10SM CLR 27/17 A3009 RMK AO2 T02730170
KJHN 170215Z AUTO 14007KT 10SM CLR 28/17 A3009 RMK AO2 T02770171
KJHN 170155Z AUTO 13010KT 10SM CLR 29/17 A3008 RMK AO2 LTG DSNT SW AND W T02880171
KJHN 170135Z AUTO 09004KT 10SM CLR 29/18 A3006 RMK AO2 LTG DSNT W T02850175
KJHN 170115Z AUTO 08005KT 10SM CLR 29/18 A3006 RMK AO2 T02920175
KJHN 170055Z AUTO 07005KT 10SM CLR 30/18 A3006 RMK AO2 T03010177
KJHN 170035Z AUTO 10006KT 10SM CLR 31/16 A3006 RMK AO2 T03100161
KJHN 170015Z AUTO 10006KT 10SM CLR 32/15 A3006 RMK AO2 LTG DSNT W T03170154
KJHN 162355Z AUTO 12007KT 10SM CLR 32/15 A3006 RMK AO2 LTG DSNT W T03210154 10339 20301
KJHN 162335Z AUTO 11005KT 10SM CLR 32/16 A3006 RMK AO2 LTG DSNT SW T03210160
KJHN 162315Z AUTO 12009KT 10SM CLR 34/15 A3005 RMK AO2 LTG DSNT W T03360154
KJHN 162255Z AUTO 12007KT 10SM CLR 33/16 A3006 RMK AO2 T03340159
KJHN 162235Z AUTO 12008KT 10SM CLR 34/16 A3006 RMK AO2 T03350161
KJHN 162215Z AUTO 11007G14KT 10SM CLR 33/16 A3007 RMK AO2 T03310155
KJHN 162155Z AUTO 10009KT 10SM CLR 33/17 A3007 RMK AO2 T03330168
KJHN 162135Z AUTO 12011G15KT 10SM CLR 33/17 A3008 RMK AO2 T03300165
KJHN 162115Z AUTO 13010G15KT 10SM CLR 33/16 A3009 RMK AO2 T03310164
KJHN 162055Z AUTO 11012G17KT 7SM CLR 33/17 A3009 RMK AO2 T03330172
KJHN 162035Z AUTO 11010G21KT 10SM CLR 33/18 A3010 RMK AO2 T03280180
KJHN 162015Z AUTO 12008G18KT 10SM CLR 33/18 A3010 RMK AO2 T03320182
KJHN 161955Z AUTO 11009G16KT 10SM CLR 33/18 A3010 RMK AO2 T03250184
KJHN 161935Z AUTO 11010G15KT 10SM CLR 32/19 A3011 RMK AO2 LTG DSNT W T03190185
KJHN 161915Z AUTO 10011G17KT 10SM CLR 32/18 A3012 RMK AO2 T03160183
KJHN 161855Z AUTO 10008KT 10SM CLR 32/19 A3013 RMK AO2 T03150188
KJHN 161835Z AUTO 13006KT 10SM CLR 31/19 A3013 RMK AO2 T03060189
KJHN 161815Z AUTO 07010G14KT 10SM CLR 30/19 A3013 RMK AO2 T03020191
KJHN 161755Z AUTO 08008KT 10SM CLR 30/19 A3014 RMK AO2 T03000191 10300 20182
KJHN 161735Z AUTO 08007KT 070V130 10SM CLR 29/19 A3014 RMK AO2 T02890189
KJHN 161715Z AUTO 09005KT 10SM CLR 29/19 A3015 RMK AO2 T02890191
KJHN 161655Z AUTO 09007KT 10SM CLR 28/19 A3015 RMK AO2 T02830190
KJHN 161635Z AUTO 11004KT 10SM CLR 28/19 A3015 RMK AO2 T02790191
KJHN 161615Z AUTO 09005KT 10SM CLR 27/19 A3015 RMK AO2 T02680188
KJHN 161555Z AUTO 09003KT 10SM CLR 26/19 A3015 RMK AO2 T02640186
KJHN 161535Z AUTO 13007KT 10SM CLR 26/19 A3015 RMK AO2 T02580188
KJHN 161515Z AUTO 12006KT 10SM CLR 25/19 A3016 RMK AO2 T02520187
KJHN 161455Z AUTO 11006KT 10SM CLR 25/19 A3016 RMK AO2 T02460189
KJHN 161435Z AUTO 06005KT 10SM CLR 24/19 A3015 RMK AO2 T02370193
KJHN 161415Z AUTO 09005KT 10SM CLR 23/19 A3015 RMK AO2 T02300190
KJHN 161355Z AUTO 06005KT 10SM CLR 23/19 A3015 RMK AO2 T02250190
KJHN 161335Z AUTO 06006KT 10SM CLR 22/19 A3015 RMK AO2 T02150189
KJHN 161315Z AUTO 06005KT 10SM CLR 21/19 A3015 RMK AO2 T02060187
KJHN 161255Z AUTO 04005KT 10SM CLR 20/19 A3015 RMK AO2 T01990185
KJHN 161235Z AUTO 06005KT 10SM CLR 19/18 A3013 RMK AO2 T01910181
KJHN 161215Z AUTO 07004KT 10SM CLR 19/18 A3013 RMK AO2 T01850176
KJHN 161155Z AUTO 03005KT 10SM CLR 18/18 A3012 RMK AO2 T01820175 10207 20179
KJHN 161135Z AUTO 03006KT 10SM CLR 18/17 A3012 RMK AO2 T01800173
KJHN 161115Z AUTO 02007KT 7SM CLR 18/17 A3011 RMK AO2 T01820174
KJHN 161055Z AUTO 02005KT 10SM CLR 18/17 A3010 RMK AO2 T01820172
KJHN 161035Z AUTO 36004KT 10SM CLR 18/17 A3010 RMK AO2 T01800171
KJHN 161015Z AUTO 33007KT 10SM CLR 18/17 A3011 RMK AO2 T01800171
KJHN 160955Z AUTO 35004KT 10SM CLR 18/17 A3010 RMK AO2 T01800171
KJHN 160935Z AUTO 34004KT 10SM CLR 18/17 A3010 RMK AO2 T01810172
KJHN 160915Z AUTO 35003KT 10SM CLR 18/17 A3010 RMK AO2 T01800170
KJHN 160855Z AUTO 00000KT 10SM CLR 18/17 A3010 RMK AO2 T01830170
KJHN 160835Z AUTO 05003KT 10SM CLR 19/17 A3010 RMK AO2 T01850170
KJHN 160815Z AUTO 04004KT 10SM CLR 19/17 A3011 RMK AO2 T01870170
KJHN 160755Z AUTO 00000KT 10SM CLR 19/17 A3012 RMK AO2 T01900170
KJHN 160735Z AUTO 05004KT 10SM CLR 19/17 A3012 RMK AO2 T01900170
KJHN 160715Z AUTO 02004KT 10SM CLR 19/17 A3013 RMK AO2 T01920166
KJHN 160655Z AUTO 03003KT 10SM CLR 20/17 A3013 RMK AO2 T01960168
KJHN 160635Z AUTO 03005KT 10SM CLR 20/17 A3013 RMK AO2 T01960170
KJHN 160615Z AUTO 05007KT 10SM CLR 20/17 A3012 RMK AO2 T02010169
KJHN 160555Z AUTO 04003KT 10SM CLR 21/17 A3012 RMK AO2 T02070169 10337 20204 403450165
KJHN 160535Z AUTO 00000KT 10SM CLR 21/17 A3012 RMK AO2 T02050170
KJHN 160515Z AUTO 05004KT 10SM CLR 21/17 A3012 RMK AO2 T02050171
KJHN 160455Z AUTO 07006KT 10SM CLR 21/17 A3012 RMK AO2 T02100172
KJHN 160435Z AUTO 06006KT 10SM CLR 22/17 A3012 RMK AO2 T02160172
KJHN 160415Z AUTO 05007KT 10SM CLR 22/17 A3012 RMK AO2 T02210172
KJHN 160355Z AUTO 06006KT 10SM CLR 22/18 A3010 RMK AO2 T02180175
KJHN 160335Z AUTO 11003KT 10SM CLR 23/18 A3010 RMK AO2 T02300175
KJHN 160315Z AUTO 10006KT 10SM CLR 24/17 A3009 RMK AO2 T02390172
KJHN 160255Z AUTO 11004KT 10SM CLR 25/17 A3008 RMK AO2 T02460169
KJHN 160235Z AUTO 11005KT 10SM CLR 26/16 A3006 RMK AO2 T02570164
KJHN 160215Z AUTO 12010KT 10SM CLR 27/16 A3005 RMK AO2 T02710160
KJHN 160155Z AUTO 00000KT 10SM CLR 28/17 A3004 RMK AO2 T02840166
KJHN 160135Z AUTO 10004KT 10SM CLR 30/17 A3003 RMK AO2 T02970166
KJHN 160115Z AUTO 13007KT 10SM CLR 31/16 A3002 RMK AO2 LTG DSNT NW T03050158
KJHN 160055Z AUTO 14011KT 10SM CLR 31/17 A3003 RMK AO2 LTG DSNT NW T03100165
KJHN 160035Z AUTO 12011KT 10SM CLR 31/17 A3001 RMK AO2 T03060169
KJHN 160015Z AUTO 08006KT 10SM CLR 33/14 A3001 RMK AO2 LTG DSNT SE T03330141
KJHN 152355Z AUTO 03006KT 10SM CLR 34/13 A3001 RMK AO2 T03350130 10345 20316